Metar Aviation Weather Data EIDW Dublin

8°C Temp
5°C Dewpoint
82% Humidity
Temperature
11 KM/H
7 MPH
6 KTS
160°
South South
East

Wind Speed
Mostly Scattered
Clouds
Pressure 1004.92 (hPa) - 29.68 (in)
Visibility 6.2 (mi) - 10 (km)

Current Conditions
EIDW
Dublin
Metar :EIDW 181200Z 16006KT 120V180 9999 SCT016 BKN026 08/05 Q1005 NOSIG
Fri 18th January 13:00 pm

Dublin
  Metar Aviation API Data Provided by https://www.checkwx.com/ PHP scripts by weather34.com ©2019